createdAt,value
2023-05-22T00:01:45.319Z,13.80
2023-05-22T00:04:13.477Z,13.60
2023-05-22T00:06:43.809Z,15.80
2023-05-22T00:09:10.569Z,11.60
2023-05-22T00:11:37.195Z,13.60
2023-05-22T00:14:03.888Z,13.60
2023-05-22T00:16:30.683Z,13.30
2023-05-22T00:18:57.738Z,12.70
2023-05-22T00:21:24.689Z,13.30
2023-05-22T00:23:51.329Z,12.40
2023-05-22T00:26:17.978Z,16.40
2023-05-22T00:28:44.618Z,12.30
2023-05-22T00:31:11.502Z,11.80
2023-05-22T00:33:38.380Z,15.30
2023-05-22T00:36:06.006Z,14.90
2023-05-22T00:38:34.291Z,12.00
2023-05-22T00:41:02.805Z,13.90
2023-05-22T00:43:29.549Z,14.50
2023-05-22T00:45:56.407Z,14.60
2023-05-22T00:48:23.642Z,15.70
2023-05-22T00:50:50.889Z,17.90
2023-05-22T00:53:19.652Z,16.70
2023-05-22T00:55:46.308Z,13.40
2023-05-22T00:58:19.287Z,14.70
2023-05-22T01:00:49.117Z,16.30
2023-05-22T01:03:16.313Z,14.60
2023-05-22T01:05:43.804Z,14.30
2023-05-22T01:08:10.618Z,15.50
2023-05-22T01:10:38.181Z,16.60
2023-05-22T01:13:19.105Z,17.90
2023-05-22T01:16:04.911Z,17.80
2023-05-22T01:18:42.610Z,18.50
2023-05-22T01:21:13.662Z,18.20
2023-05-22T01:24:18.287Z,18.00
2023-05-22T01:27:08.303Z,17.70
2023-05-22T01:30:07.211Z,17.00
2023-05-22T01:32:34.425Z,21.40
2023-05-22T01:35:01.931Z,18.80
2023-05-22T01:37:28.699Z,18.10
2023-05-22T01:39:55.865Z,19.40
2023-05-22T01:42:22.748Z,17.50
2023-05-22T01:44:49.452Z,17.10
2023-05-22T01:47:16.965Z,16.90
2023-05-22T01:52:15.563Z,21.30
2023-05-22T01:54:52.760Z,19.00
2023-05-22T01:57:33.122Z,19.70
2023-05-22T02:00:09.747Z,21.90
2023-05-22T02:02:49.568Z,22.00
2023-05-22T02:05:18.446Z,23.40
2023-05-22T02:07:45.515Z,20.30
2023-05-22T02:10:12.467Z,20.20
2023-05-22T02:12:39.153Z,19.70
2023-05-22T02:15:07.110Z,21.90
2023-05-22T02:17:40.634Z,21.60
2023-05-22T02:20:15.123Z,18.80
2023-05-22T02:22:46.797Z,22.70
2023-05-22T02:25:14.959Z,22.10
2023-05-22T02:27:42.913Z,21.60
2023-05-22T02:32:37.555Z,22.20
2023-05-22T02:37:31.745Z,23.20
2023-05-22T02:39:59.070Z,22.20
2023-05-22T02:42:26.076Z,24.10
2023-05-22T02:44:53.735Z,22.90
2023-05-22T02:47:20.481Z,21.50
2023-05-22T02:49:47.390Z,22.40
2023-05-22T02:54:41.952Z,22.40
2023-05-22T02:57:08.651Z,20.70
2023-05-22T02:59:36.832Z,21.70
2023-05-22T03:02:03.866Z,18.90
2023-05-22T03:04:30.731Z,19.60
2023-05-22T03:06:57.424Z,22.80
2023-05-22T03:09:25.543Z,22.90
2023-05-22T03:11:52.188Z,21.40
2023-05-22T03:14:18.819Z,18.70
2023-05-22T03:16:45.513Z,21.10
2023-05-22T03:19:15.910Z,23.60
2023-05-22T03:21:46.038Z,18.70
2023-05-22T03:24:13.196Z,20.50
2023-05-22T03:26:40.008Z,19.00
2023-05-22T03:29:08.773Z,19.50
2023-05-22T03:31:36.176Z,19.70
2023-05-22T03:34:08.729Z,16.60
2023-05-22T03:36:37.110Z,16.00
2023-05-22T03:39:04.134Z,14.20
2023-05-22T03:41:33.001Z,20.40
2023-05-22T03:43:59.978Z,19.80
2023-05-22T03:46:27.182Z,16.60
2023-05-22T03:48:54.118Z,15.60
2023-05-22T03:51:20.759Z,16.30
2023-05-22T03:53:47.467Z,15.90
2023-05-22T03:56:14.588Z,12.90
2023-05-22T03:58:41.287Z,15.40
2023-05-22T04:01:10.109Z,16.00
2023-05-22T04:03:37.911Z,14.00
2023-05-22T04:06:05.895Z,16.10
2023-05-22T04:08:32.726Z,13.00
2023-05-22T04:11:00.446Z,13.20
2023-05-22T04:13:27.371Z,13.90
2023-05-22T04:15:54.149Z,14.60
2023-05-22T04:18:20.991Z,13.40
2023-05-22T04:20:47.874Z,13.80
2023-05-22T04:23:14.563Z,12.70
2023-05-22T04:25:41.291Z,13.70
2023-05-22T04:28:09.446Z,15.50
2023-05-22T04:30:40.428Z,13.20
2023-05-22T04:33:08.554Z,13.00
2023-05-22T04:35:36.165Z,10.20
2023-05-22T04:38:06.594Z,14.30
2023-05-22T04:40:38.092Z,12.90
2023-05-22T04:43:05.208Z,12.00
2023-05-22T04:45:33.026Z,11.40
2023-05-22T04:48:02.588Z,10.40
2023-05-22T04:50:33.054Z,9.30
2023-05-22T04:53:00.056Z,9.70
2023-05-22T04:55:26.850Z,9.80
2023-05-22T04:57:53.763Z,10.10
2023-05-22T05:00:26.389Z,11.10
2023-05-22T05:02:53.595Z,10.10
2023-05-22T05:05:20.591Z,14.20
2023-05-22T05:07:50.057Z,8.30
2023-05-22T05:10:17.735Z,8.00
2023-05-22T05:12:44.429Z,14.50
2023-05-22T05:15:11.225Z,12.70
2023-05-22T05:17:38.430Z,8.20
2023-05-22T05:20:07.642Z,7.80
2023-05-22T05:22:34.672Z,12.00
2023-05-22T05:25:03.768Z,6.90
2023-05-22T05:27:30.760Z,8.40
2023-05-22T05:29:57.452Z,17.60
2023-05-22T05:32:30.427Z,9.90
2023-05-22T05:35:02.929Z,9.10
2023-05-22T05:37:50.073Z,7.10
2023-05-22T05:40:17.282Z,6.90
2023-05-22T05:42:50.153Z,5.90
2023-05-22T05:45:19.029Z,4.90
2023-05-22T05:47:45.956Z,6.80
2023-05-22T05:50:15.636Z,5.00
2023-05-22T05:52:42.951Z,6.30
2023-05-22T05:55:14.372Z,5.60
2023-05-22T05:57:41.489Z,5.30
2023-05-22T06:00:12.583Z,4.10
2023-05-22T06:02:42.303Z,6.50
2023-05-22T06:05:41.919Z,4.20
2023-05-22T06:08:32.323Z,6.40
2023-05-22T06:10:59.280Z,6.10
2023-05-22T06:13:32.695Z,4.40
2023-05-22T06:16:02.753Z,4.10
2023-05-22T06:18:31.339Z,4.90
2023-05-22T06:20:59.187Z,3.40
2023-05-22T06:23:25.999Z,7.00
2023-05-22T06:25:54.043Z,4.70
2023-05-22T06:28:21.386Z,4.90
2023-05-22T06:30:48.363Z,3.70
2023-05-22T06:33:16.802Z,4.40
2023-05-22T06:35:44.480Z,4.40
2023-05-22T06:38:12.389Z,4.30
2023-05-22T06:40:40.243Z,4.80
2023-05-22T06:43:13.260Z,4.80
2023-05-22T06:45:51.061Z,6.70
2023-05-22T06:48:36.210Z,5.10
2023-05-22T06:51:12.899Z,7.00
2023-05-22T06:53:40.746Z,3.50
2023-05-22T06:56:12.289Z,2.70
2023-05-22T06:58:54.860Z,3.10
2023-05-22T07:01:23.774Z,3.40
2023-05-22T07:04:05.192Z,3.50
2023-05-22T07:06:39.138Z,8.40
2023-05-22T07:09:06.459Z,4.50
2023-05-22T07:14:01.472Z,4.50
2023-05-22T07:16:29.986Z,5.60
2023-05-22T07:18:57.303Z,4.40
2023-05-22T07:21:24.292Z,5.70
2023-05-22T07:23:52.443Z,6.30
2023-05-22T07:26:19.236Z,8.40
2023-05-22T07:28:51.414Z,2.80
2023-05-22T07:31:18.124Z,3.40
2023-05-22T07:33:45.448Z,7.00
2023-05-22T07:36:12.581Z,3.40
2023-05-22T07:38:41.048Z,3.50
2023-05-22T07:41:07.894Z,5.50
2023-05-22T07:43:34.734Z,6.10
2023-05-22T07:46:01.871Z,55.00
2023-05-22T07:48:33.878Z,8.60
2023-05-22T07:51:00.849Z,8.90
2023-05-22T07:53:27.574Z,8.60
2023-05-22T07:55:55.954Z,3.80
2023-05-22T07:58:24.241Z,5.10
2023-05-22T08:00:51.411Z,3.10
2023-05-22T08:03:18.818Z,5.20
2023-05-22T08:05:46.547Z,3.10
2023-05-22T08:08:13.367Z,3.30
2023-05-22T08:13:10.562Z,5.10
2023-05-22T08:15:37.197Z,5.40
2023-05-22T08:18:04.009Z,5.00
2023-05-22T08:20:30.921Z,6.00
2023-05-22T08:22:57.659Z,5.60
2023-05-22T08:25:24.330Z,7.80
2023-05-22T08:27:50.982Z,6.70
2023-05-22T08:30:17.851Z,5.00
2023-05-22T08:32:44.661Z,6.10
2023-05-22T08:35:11.442Z,11.10
2023-05-22T08:37:38.100Z,2.90
2023-05-22T08:40:06.132Z,3.50
2023-05-22T08:42:33.099Z,7.40
2023-05-22T08:45:01.189Z,4.80
2023-05-22T08:47:28.575Z,3.30
2023-05-22T08:52:23.192Z,2.60
2023-05-22T08:54:53.197Z,5.10
2023-05-22T08:57:20.552Z,3.60
2023-05-22T08:59:47.420Z,5.90
2023-05-22T09:02:14.113Z,4.20
2023-05-22T09:04:41.222Z,4.50
2023-05-22T09:07:09.187Z,2.60
2023-05-22T09:09:39.076Z,3.00
2023-05-22T09:12:09.222Z,3.90
2023-05-22T09:14:45.135Z,4.10
2023-05-22T09:17:18.649Z,2.70
2023-05-22T09:19:48.296Z,4.30
2023-05-22T09:22:15.198Z,5.10
2023-05-22T09:24:42.536Z,3.10
2023-05-22T09:27:09.863Z,2.90
2023-05-22T09:32:17.740Z,8.50
2023-05-22T09:34:47.940Z,2.40
2023-05-22T09:37:15.853Z,3.10
2023-05-22T09:39:47.087Z,6.30
2023-05-22T09:42:17.970Z,3.20
2023-05-22T09:44:48.765Z,2.70
2023-05-22T09:47:15.682Z,2.60
2023-05-22T09:49:43.366Z,4.20
2023-05-22T09:52:12.512Z,2.40
2023-05-22T09:54:45.647Z,3.80
2023-05-22T09:57:14.080Z,3.20
2023-05-22T09:59:40.946Z,2.80
2023-05-22T10:02:07.714Z,4.30
2023-05-22T10:04:34.575Z,2.70
2023-05-22T10:07:02.433Z,3.30
2023-05-22T10:09:31.352Z,7.30
2023-05-22T10:11:58.690Z,2.70
2023-05-22T10:14:25.499Z,5.60
2023-05-22T10:16:52.719Z,3.40
2023-05-22T10:19:19.614Z,2.60
2023-05-22T10:21:47.392Z,2.70
2023-05-22T10:24:14.023Z,3.50
2023-05-22T10:26:40.739Z,2.40
2023-05-22T10:29:11.057Z,5.50
2023-05-22T10:31:55.791Z,4.40
2023-05-22T10:37:21.758Z,2.60
2023-05-22T10:40:02.148Z,6.30
2023-05-22T10:42:30.919Z,3.40
2023-05-22T10:45:01.373Z,2.60
2023-05-22T10:47:28.155Z,4.10
2023-05-22T10:50:06.715Z,3.50
2023-05-22T10:52:33.554Z,2.90
2023-05-22T10:55:00.460Z,4.20
2023-05-22T10:57:27.470Z,5.60
2023-05-22T11:00:09.995Z,4.60
2023-05-22T11:02:39.537Z,4.80
2023-05-22T11:05:18.612Z,2.60
2023-05-22T11:07:45.467Z,3.90
2023-05-22T11:10:12.227Z,2.60
2023-05-22T11:12:38.881Z,3.50
2023-05-22T11:15:09.864Z,2.60
2023-05-22T11:17:40.038Z,3.50
2023-05-22T11:20:12.537Z,4.20
2023-05-22T11:22:44.279Z,2.40
2023-05-22T11:25:17.931Z,2.60
2023-05-22T11:27:44.730Z,6.40
2023-05-22T11:30:11.897Z,7.80
2023-05-22T11:32:39.855Z,2.60
2023-05-22T11:35:10.061Z,1.80
2023-05-22T11:37:40.521Z,3.30
2023-05-22T11:40:08.117Z,4.00
2023-05-22T11:42:35.566Z,5.60
2023-05-22T11:45:02.836Z,3.30
2023-05-22T11:47:30.224Z,3.00
2023-05-22T11:49:57.722Z,2.60
2023-05-22T11:54:54.156Z,2.00
2023-05-22T11:57:20.894Z,4.50
2023-05-22T11:59:47.586Z,3.00
2023-05-22T12:02:14.578Z,3.00
2023-05-22T12:04:41.414Z,3.70
2023-05-22T12:07:08.462Z,3.20
2023-05-22T12:09:35.141Z,2.40
2023-05-22T12:12:01.807Z,2.40
2023-05-22T12:14:29.202Z,3.10
2023-05-22T12:19:22.712Z,3.40
2023-05-22T12:21:50.166Z,3.90
2023-05-22T12:24:21.636Z,3.40
2023-05-22T12:26:52.644Z,2.20
2023-05-22T12:29:21.721Z,3.40
2023-05-22T12:31:48.438Z,2.50
2023-05-22T12:34:16.240Z,2.40
2023-05-22T12:36:43.660Z,4.80
2023-05-22T12:41:38.548Z,2.50
2023-05-22T12:46:33.734Z,2.50
2023-05-22T12:49:01.167Z,3.20
2023-05-22T12:53:59.063Z,4.10
2023-05-22T12:56:26.499Z,5.40
2023-05-22T13:01:21.835Z,3.90
2023-05-22T13:03:49.158Z,3.00
2023-05-22T13:06:16.639Z,3.30
2023-05-22T13:08:43.837Z,6.60
2023-05-22T13:11:11.331Z,2.80
2023-05-22T13:13:38.562Z,4.00
2023-05-22T13:18:33.281Z,5.20
2023-05-22T13:21:00.725Z,3.20
2023-05-22T13:25:55.298Z,3.20
2023-05-22T13:30:49.700Z,3.70
2023-05-22T13:33:16.915Z,2.50
2023-05-22T13:35:44.753Z,6.20
2023-05-22T13:38:11.947Z,6.00
2023-05-22T13:40:39.216Z,2.50
2023-05-22T13:43:06.370Z,2.10
2023-05-22T13:45:33.874Z,2.90
2023-05-22T13:48:01.572Z,2.90
2023-05-22T13:50:28.890Z,3.90
2023-05-22T13:52:56.597Z,3.10
2023-05-22T13:55:24.000Z,4.00
2023-05-22T13:57:51.748Z,2.50
2023-05-22T14:00:19.750Z,3.30
2023-05-22T14:02:47.456Z,4.00
2023-05-22T14:07:42.432Z,4.10
2023-05-22T14:10:10.313Z,2.70
2023-05-22T14:12:37.531Z,3.40
2023-05-22T14:15:05.382Z,2.70
2023-05-22T14:17:32.544Z,3.80
2023-05-22T14:19:59.981Z,2.40
2023-05-22T14:24:54.359Z,2.30
2023-05-22T14:27:21.522Z,3.50
2023-05-22T14:29:48.726Z,4.00
2023-05-22T14:32:15.997Z,3.30
2023-05-22T14:34:43.192Z,3.30
2023-05-22T14:37:10.536Z,2.90
2023-05-22T14:42:04.894Z,3.00
2023-05-22T14:44:32.087Z,2.90
2023-05-22T14:46:59.654Z,2.50
2023-05-22T14:49:26.939Z,2.70
2023-05-22T14:51:54.679Z,2.90
2023-05-22T14:54:23.702Z,2.40
2023-05-22T14:56:50.931Z,7.20
2023-05-22T14:59:18.639Z,3.60
2023-05-22T15:01:50.125Z,3.70
2023-05-22T15:04:18.040Z,2.40
2023-05-22T15:06:45.471Z,2.70
2023-05-22T15:11:41.043Z,3.80
2023-05-22T15:14:08.211Z,2.70
2023-05-22T15:16:35.656Z,5.40
2023-05-22T15:19:03.411Z,3.30
2023-05-22T15:21:31.452Z,2.40
2023-05-22T15:23:59.016Z,2.40
2023-05-22T15:26:26.405Z,4.50
2023-05-22T15:31:20.735Z,3.60
2023-05-22T15:33:47.959Z,2.60
2023-05-22T15:36:15.186Z,3.70
2023-05-22T15:38:42.641Z,2.10
2023-05-22T15:43:36.950Z,2.70
2023-05-22T15:46:04.179Z,2.50
2023-05-22T15:48:32.954Z,3.10
2023-05-22T15:51:00.460Z,2.30
2023-05-22T15:53:27.639Z,3.00
2023-05-22T15:55:54.850Z,4.00
2023-05-22T15:58:22.289Z,2.60
2023-05-22T16:00:49.620Z,2.70
2023-05-22T16:05:47.105Z,6.30
2023-05-22T16:08:15.509Z,3.50
2023-05-22T16:10:44.494Z,3.80
2023-05-22T16:13:12.174Z,2.50
2023-05-22T16:18:08.044Z,3.60
2023-05-22T16:20:35.889Z,2.70
2023-05-22T16:23:03.167Z,3.80
2023-05-22T16:25:30.384Z,5.90
2023-05-22T16:30:24.913Z,3.40
2023-05-22T16:32:52.158Z,2.50
2023-05-22T16:35:23.693Z,2.80
2023-05-22T16:37:51.027Z,4.50
2023-05-22T16:42:46.032Z,3.40
2023-05-22T16:45:13.315Z,2.50
2023-05-22T16:47:40.690Z,2.90
2023-05-22T16:50:08.705Z,4.10
2023-05-22T16:52:36.770Z,4.00
2023-05-22T16:55:04.757Z,3.30
2023-05-22T16:57:31.977Z,3.90
2023-05-22T16:59:59.182Z,3.70
2023-05-22T17:02:26.473Z,2.90
2023-05-22T17:04:54.577Z,3.20
2023-05-22T17:07:21.993Z,4.60
2023-05-22T17:12:16.491Z,5.00
2023-05-22T17:14:43.876Z,5.60
2023-05-22T17:17:11.123Z,4.60
2023-05-22T17:19:38.530Z,5.60
2023-05-22T17:24:34.152Z,4.30
2023-05-22T17:27:03.463Z,2.90
2023-05-22T17:29:30.708Z,4.10
2023-05-22T17:31:57.984Z,2.80
2023-05-22T17:34:25.332Z,8.10
2023-05-22T17:36:52.589Z,3.10
2023-05-22T17:39:19.793Z,3.90
2023-05-22T17:41:46.967Z,3.60
2023-05-22T17:44:14.184Z,13.60
2023-05-22T17:46:41.652Z,7.60
2023-05-22T17:49:09.449Z,6.90
2023-05-22T17:51:37.375Z,5.30
2023-05-22T17:54:06.258Z,4.60
2023-05-22T17:56:33.477Z,6.00
2023-05-22T17:59:01.361Z,6.30
2023-05-22T18:01:29.586Z,4.30
2023-05-22T18:03:56.908Z,4.60
2023-05-22T18:06:24.528Z,4.40
2023-05-22T18:08:52.025Z,5.60
2023-05-22T18:11:19.356Z,4.60
2023-05-22T18:13:46.781Z,5.70
2023-05-22T18:18:41.971Z,4.90
2023-05-22T18:23:36.374Z,4.00
2023-05-22T18:26:03.577Z,4.20
2023-05-22T18:28:30.818Z,4.40
2023-05-22T18:30:58.095Z,5.30
2023-05-22T18:33:25.383Z,7.30
2023-05-22T18:35:52.768Z,4.80
2023-05-22T18:38:22.052Z,5.80
2023-05-22T18:40:49.240Z,7.00
2023-05-22T18:43:16.458Z,11.10
2023-05-22T18:45:43.814Z,4.80
2023-05-22T18:48:11.229Z,4.20
2023-05-22T18:50:38.943Z,6.00
2023-05-22T18:55:34.426Z,5.90
2023-05-22T18:58:01.655Z,4.50
2023-05-22T19:00:28.852Z,6.40
2023-05-22T19:02:56.414Z,6.70
2023-05-22T19:05:23.664Z,6.80
2023-05-22T19:07:50.890Z,4.20
2023-05-22T19:10:18.126Z,5.90
2023-05-22T19:12:45.351Z,7.00
2023-05-22T19:15:12.529Z,5.40
2023-05-22T19:17:39.781Z,7.50
2023-05-22T19:20:07.758Z,5.00
2023-05-22T19:22:35.023Z,5.70
2023-05-22T19:25:02.921Z,5.60
2023-05-22T19:27:30.391Z,5.90
2023-05-22T19:29:57.606Z,6.70
2023-05-22T19:32:25.060Z,5.70
2023-05-22T19:34:52.277Z,5.40
2023-05-22T19:37:19.614Z,5.30
2023-05-22T19:39:48.450Z,7.40
2023-05-22T19:42:15.811Z,5.00
2023-05-22T19:44:43.032Z,5.20
2023-05-22T19:47:10.296Z,6.10
2023-05-22T19:49:37.985Z,5.80
2023-05-22T19:52:06.063Z,5.30
2023-05-22T19:54:35.376Z,4.80
2023-05-22T19:57:03.101Z,4.70
2023-05-22T19:59:30.573Z,5.40
2023-05-22T20:04:25.103Z,9.10
2023-05-22T20:06:54.123Z,9.90
2023-05-22T20:09:21.653Z,7.70
2023-05-22T20:14:16.086Z,4.80
2023-05-22T20:16:43.556Z,5.50
2023-05-22T20:19:10.971Z,7.50
2023-05-22T20:21:38.346Z,4.60
2023-05-22T20:24:12.074Z,8.10
2023-05-22T20:26:39.355Z,10.20
2023-05-22T20:29:06.599Z,5.40
2023-05-22T20:31:34.841Z,5.40
2023-05-22T20:34:02.406Z,6.20
2023-05-22T20:36:29.774Z,7.00
2023-05-22T20:38:58.544Z,6.80
2023-05-22T20:41:25.922Z,7.90
2023-05-22T20:43:54.526Z,6.70
2023-05-22T20:46:25.171Z,5.90
2023-05-22T20:48:52.523Z,6.00
2023-05-22T20:51:20.598Z,10.20
2023-05-22T20:53:48.417Z,7.10
2023-05-22T20:56:16.300Z,7.10
2023-05-22T20:58:43.660Z,6.40
2023-05-22T21:01:11.036Z,8.10
2023-05-22T21:06:06.247Z,6.70
2023-05-22T21:08:34.231Z,8.80
2023-05-22T21:11:01.510Z,7.20
2023-05-22T21:13:28.725Z,7.80
2023-05-22T21:15:55.914Z,6.30
2023-05-22T21:18:24.298Z,8.80
2023-05-22T21:20:51.712Z,6.70
2023-05-22T21:25:46.101Z,8.20
2023-05-22T21:28:13.280Z,7.60
2023-05-22T21:30:40.643Z,8.00
2023-05-22T21:33:08.231Z,8.30
2023-05-22T21:35:35.699Z,10.30
2023-05-22T21:38:02.912Z,9.40
2023-05-22T21:40:30.089Z,6.60
2023-05-22T21:42:57.275Z,11.20
2023-05-22T21:45:24.438Z,7.30
2023-05-22T21:47:51.675Z,7.40
2023-05-22T21:50:18.972Z,6.70
2023-05-22T21:52:46.152Z,9.40
2023-05-22T21:55:13.404Z,9.70
2023-05-22T21:57:41.118Z,9.70
2023-05-22T22:00:09.170Z,9.30
2023-05-22T22:02:36.431Z,10.60
2023-05-22T22:05:04.346Z,7.70
2023-05-22T22:07:31.533Z,8.10
2023-05-22T22:09:59.091Z,7.80
2023-05-22T22:14:53.996Z,9.00
2023-05-22T22:17:23.701Z,9.50
2023-05-22T22:19:53.565Z,13.40
2023-05-22T22:22:22.827Z,8.50
2023-05-22T22:24:50.201Z,8.70
2023-05-22T22:27:17.711Z,8.60
2023-05-22T22:32:13.058Z,12.70
2023-05-22T22:34:40.532Z,7.40
2023-05-22T22:37:07.929Z,8.80
2023-05-22T22:39:35.116Z,8.10
2023-05-22T22:42:05.162Z,17.80
2023-05-22T22:44:32.477Z,7.90
2023-05-22T22:47:01.852Z,8.20
2023-05-22T22:49:29.175Z,8.00
2023-05-22T22:51:56.617Z,7.00
2023-05-22T22:56:51.499Z,9.30
2023-05-22T22:59:19.092Z,7.50
2023-05-22T23:01:46.417Z,9.70
2023-05-22T23:04:14.016Z,7.70
2023-05-22T23:06:44.701Z,9.00
2023-05-22T23:09:11.894Z,7.60
2023-05-22T23:11:39.128Z,7.90
2023-05-22T23:14:07.618Z,7.10
2023-05-22T23:16:41.066Z,7.80
2023-05-22T23:19:09.405Z,7.00
2023-05-22T23:21:36.909Z,6.60
2023-05-22T23:24:04.547Z,7.50
2023-05-22T23:26:32.114Z,7.50
2023-05-22T23:31:30.744Z,8.40
2023-05-22T23:33:58.635Z,8.40
2023-05-22T23:38:53.136Z,6.50
2023-05-22T23:41:20.293Z,7.50
2023-05-22T23:43:47.717Z,11.30
2023-05-22T23:46:14.993Z,7.70
2023-05-22T23:48:42.670Z,7.80
2023-05-22T23:51:10.033Z,7.10
2023-05-22T23:53:37.549Z,8.10
2023-05-22T23:58:32.326Z,6.70
